Carp, Nevada
Current Conditions -  °F | °C
As of 10:35 PM on Wednesday 26 Nov 2014 (Local Time) from KSGU Reporting Station
Clear Clear  
Wind Chill: 43°   Ceiling: Unl
Heat Index: 43°   Visibility: 10mi
Dew Point: 16°   Wind: 0mph
Humidity: 34%   Direction: NA
Pressure: 30.4"   Gusts: NA
Location:  37.2951°N, 114.495°W
Report Text: KSGU 270635Z AUTO 00000KT 10SM CLR 06/M09 A3040 RMK AO1
Loading
Personal Weather Stations






























Interactive Weather Map New forecast layout! Learn more

10-Day Weather Forecast

Advertisements
Track Severe Weather on mobile